createdAt,value
2022-10-05T00:02:15.322Z,95527.97
2022-10-05T00:04:41.821Z,95517.06
2022-10-05T00:07:14.277Z,95517.06
2022-10-05T00:09:41.132Z,95521.31
2022-10-05T00:12:17.503Z,95521.69
2022-10-05T00:14:46.271Z,95520.31
2022-10-05T00:17:28.253Z,95527.22
2022-10-05T00:19:55.445Z,95522.28
2022-10-05T00:22:30.284Z,95509.13
2022-10-05T00:25:00.534Z,95519.03
2022-10-05T00:27:33.071Z,95500.59
2022-10-05T00:30:02.696Z,95500.88
2022-10-05T00:32:29.007Z,95527.25
2022-10-05T00:34:57.153Z,95524.38
2022-10-05T00:37:23.584Z,95504.91
2022-10-05T00:39:50.018Z,95514.75
2022-10-05T00:42:36.268Z,95516.09
2022-10-05T00:45:13.174Z,95503.09
2022-10-05T00:48:20.497Z,95503.88
2022-10-05T00:50:59.113Z,95497.34
2022-10-05T00:53:54.744Z,95487.78
2022-10-05T00:56:31.754Z,95482.44
2022-10-05T00:59:21.995Z,95480.97
2022-10-05T01:02:12.325Z,95460.94
2022-10-05T01:05:07.203Z,95471.41
2022-10-05T01:08:14.112Z,95445.88
2022-10-05T01:10:51.132Z,95456.44
2022-10-05T01:13:41.518Z,95447.84
2022-10-05T01:16:20.007Z,95444.09
2022-10-05T01:18:56.114Z,95435.41
2022-10-05T01:21:25.931Z,95455.63
2022-10-05T01:24:17.686Z,95456.19
2022-10-05T01:27:02.671Z,95459.19
2022-10-05T01:29:31.978Z,95456.28
2022-10-05T01:32:23.820Z,95459.63
2022-10-05T01:35:16.251Z,95449.31
2022-10-05T01:37:59.947Z,95451.97
2022-10-05T01:40:53.989Z,95455.97
2022-10-05T01:43:26.345Z,95439.13
2022-10-05T01:46:22.174Z,95444.16
2022-10-05T01:48:54.521Z,95459.06
2022-10-05T01:51:58.586Z,95458.28
2022-10-05T01:54:42.832Z,95451.91
2022-10-05T01:57:22.243Z,95453.63
2022-10-05T02:00:09.147Z,95439.84
2022-10-05T02:02:50.551Z,95437.72
2022-10-05T02:05:24.837Z,95437.84
2022-10-05T02:08:03.439Z,95424.34
2022-10-05T02:10:48.123Z,95435.91
2022-10-05T02:13:22.289Z,95435.03
2022-10-05T02:15:54.338Z,95423.69
2022-10-05T02:18:36.599Z,95406.03
2022-10-05T02:21:04.536Z,95413.66
2022-10-05T02:23:38.502Z,95410.91
2022-10-05T02:26:06.948Z,95409.44
2022-10-05T02:28:54.565Z,95408.16
2022-10-05T02:31:35.108Z,95404.78
2022-10-05T02:34:20.472Z,95409.66
2022-10-05T02:36:54.648Z,95419.94
2022-10-05T02:39:35.073Z,95413.06
2022-10-05T02:42:04.250Z,95416.00
2022-10-05T02:45:00.003Z,95409.56
2022-10-05T02:47:50.182Z,95407.75
2022-10-05T02:50:31.819Z,95409.25
2022-10-05T02:53:26.409Z,95419.53
2022-10-05T02:56:08.472Z,95409.97
2022-10-05T02:59:09.036Z,95413.81
2022-10-05T03:02:12.214Z,95402.63
2022-10-05T03:04:52.090Z,95412.34
2022-10-05T03:07:29.597Z,95415.78
2022-10-05T03:10:17.887Z,95432.06
2022-10-05T03:13:09.859Z,95414.28
2022-10-05T03:15:52.638Z,95410.34
2022-10-05T03:18:54.099Z,95406.19
2022-10-05T03:21:53.273Z,95417.03
2022-10-05T03:24:35.436Z,95420.88
2022-10-05T03:27:36.274Z,95419.50
2022-10-05T03:30:09.756Z,95410.94
2022-10-05T03:33:00.622Z,95400.09
2022-10-05T03:35:35.453Z,95415.44
2022-10-05T03:38:29.344Z,95420.69
2022-10-05T03:41:16.835Z,95412.34
2022-10-05T03:44:01.675Z,95416.44
2022-10-05T03:46:51.508Z,95424.97
2022-10-05T03:49:31.755Z,95418.03
2022-10-05T03:52:34.175Z,95422.69
2022-10-05T03:55:19.923Z,95421.47
2022-10-05T03:57:49.376Z,95427.53
2022-10-05T04:00:23.235Z,95426.50
2022-10-05T04:03:21.287Z,95421.56
2022-10-05T04:05:52.227Z,95419.09
2022-10-05T04:08:37.725Z,95417.66
2022-10-05T04:11:14.198Z,95420.59
2022-10-05T04:13:50.675Z,95422.78
2022-10-05T04:16:17.155Z,95421.16
2022-10-05T04:19:20.149Z,95423.59
2022-10-05T04:21:56.247Z,95419.31
2022-10-05T04:24:34.951Z,95422.13
2022-10-05T04:27:19.555Z,95417.38
2022-10-05T04:30:14.422Z,95407.81
2022-10-05T04:32:57.745Z,95413.66
2022-10-05T04:35:40.860Z,95413.47
2022-10-05T04:38:19.678Z,95408.19
2022-10-05T04:40:57.900Z,95415.66
2022-10-05T04:43:49.169Z,95416.81
2022-10-05T04:46:37.612Z,95413.13
2022-10-05T04:49:39.344Z,95412.13
2022-10-05T04:52:29.522Z,95409.53
2022-10-05T04:55:19.997Z,95401.38
2022-10-05T04:58:36.778Z,95397.84
2022-10-05T05:01:32.441Z,95407.50
2022-10-05T05:04:22.041Z,95401.59
2022-10-05T05:06:57.893Z,95400.59
2022-10-05T05:09:45.581Z,95395.69
2022-10-05T05:12:17.954Z,95410.13
2022-10-05T05:14:55.451Z,95414.16
2022-10-05T05:17:54.720Z,95411.31
2022-10-05T05:20:39.573Z,95415.56
2022-10-05T05:23:16.951Z,95409.28
2022-10-05T05:25:56.747Z,95421.66
2022-10-05T05:29:05.536Z,95431.81
2022-10-05T05:31:40.712Z,95429.19
2022-10-05T05:34:32.382Z,95432.06
2022-10-05T05:37:19.975Z,95429.41
2022-10-05T05:40:03.099Z,95437.25
2022-10-05T05:42:58.231Z,95444.13
2022-10-05T05:45:46.959Z,95439.16
2022-10-05T05:48:29.176Z,95444.06
2022-10-05T05:51:01.534Z,95437.69
2022-10-05T05:53:50.600Z,95456.31
2022-10-05T05:56:34.131Z,95438.84
2022-10-05T05:59:14.206Z,95453.78
2022-10-05T06:01:52.410Z,95454.69
2022-10-05T06:04:25.136Z,95459.25
2022-10-05T06:06:54.391Z,95466.88
2022-10-05T06:09:36.580Z,95464.75
2022-10-05T06:12:22.698Z,95464.06
2022-10-05T06:14:58.338Z,95471.16
2022-10-05T06:17:35.747Z,95469.34
2022-10-05T06:20:06.011Z,95461.66
2022-10-05T06:22:46.275Z,95470.94
2022-10-05T06:25:12.653Z,95463.03
2022-10-05T06:28:01.652Z,95466.78
2022-10-05T06:30:44.845Z,95463.09
2022-10-05T06:33:43.686Z,95461.06
2022-10-05T06:36:32.415Z,95459.13
2022-10-05T06:39:26.914Z,95462.66
2022-10-05T06:42:04.063Z,95460.47
2022-10-05T06:44:43.212Z,95452.75
2022-10-05T06:47:23.167Z,95462.94
2022-10-05T06:50:25.160Z,95455.66
2022-10-05T06:53:05.179Z,95460.53
2022-10-05T06:55:48.413Z,95456.44
2022-10-05T06:58:42.768Z,95452.94
2022-10-05T07:01:31.230Z,95462.34
2022-10-05T07:04:16.362Z,95462.69
2022-10-05T07:07:00.103Z,95456.94
2022-10-05T07:09:48.755Z,95450.63
2022-10-05T07:12:24.023Z,95462.88
2022-10-05T07:15:18.680Z,95462.31
2022-10-05T07:17:57.665Z,95457.03
2022-10-05T07:20:39.786Z,95447.25
2022-10-05T07:23:31.848Z,95449.22
2022-10-05T07:26:07.827Z,95442.84
2022-10-05T07:28:46.154Z,95430.41
2022-10-05T07:31:32.611Z,95444.19
2022-10-05T07:34:06.673Z,95441.47
2022-10-05T07:37:06.994Z,95434.13
2022-10-05T07:40:01.203Z,95439.72
2022-10-05T07:42:47.572Z,95449.53
2022-10-05T07:45:37.924Z,95454.75
2022-10-05T07:48:15.696Z,95457.06
2022-10-05T07:51:21.731Z,95445.91
2022-10-05T07:54:10.077Z,95445.75
2022-10-05T07:56:43.432Z,95449.38
2022-10-05T07:59:19.203Z,95460.75
2022-10-05T08:01:52.090Z,95463.84
2022-10-05T08:04:28.145Z,95459.53
2022-10-05T08:06:58.095Z,95465.53
2022-10-05T08:09:36.335Z,95453.88
2022-10-05T08:12:20.840Z,95462.16
2022-10-05T08:14:58.081Z,95465.50
2022-10-05T08:17:51.005Z,95457.47
2022-10-05T08:20:46.480Z,95463.66
2022-10-05T08:23:36.474Z,95450.31
2022-10-05T08:26:08.281Z,95461.63
2022-10-05T08:28:39.689Z,95458.59
2022-10-05T08:31:09.122Z,95449.34
2022-10-05T08:34:07.591Z,95452.22
2022-10-05T08:36:40.018Z,95446.84
2022-10-05T08:39:18.354Z,95443.75
2022-10-05T08:41:59.459Z,95445.44
2022-10-05T08:44:44.580Z,95443.50
2022-10-05T08:47:37.221Z,95455.84
2022-10-05T08:50:21.712Z,95457.28
2022-10-05T08:53:25.624Z,95465.94
2022-10-05T08:56:10.434Z,95463.16
2022-10-05T08:59:02.784Z,95464.97
2022-10-05T09:01:54.320Z,95471.59
2022-10-05T09:04:58.259Z,95464.44
2022-10-05T09:07:47.101Z,95463.72
2022-10-05T09:10:25.307Z,95463.88
2022-10-05T09:13:13.671Z,95470.56
2022-10-05T09:16:16.867Z,95461.88
2022-10-05T09:19:01.927Z,95479.13
2022-10-05T09:22:15.595Z,95469.50
2022-10-05T09:24:57.378Z,95466.19
2022-10-05T09:27:38.260Z,95480.81
2022-10-05T09:30:16.459Z,95474.88
2022-10-05T09:32:58.034Z,95467.56
2022-10-05T09:35:46.221Z,95482.84
2022-10-05T09:38:38.311Z,95476.31
2022-10-05T09:41:29.512Z,95484.44
2022-10-05T09:44:45.596Z,95484.50
2022-10-05T09:47:39.349Z,95479.38
2022-10-05T09:50:05.743Z,95480.41
2022-10-05T09:52:51.254Z,95463.13
2022-10-05T09:55:34.868Z,95476.28
2022-10-05T09:58:34.558Z,95452.59
2022-10-05T10:01:09.803Z,95473.00
2022-10-05T10:04:10.128Z,95473.69
2022-10-05T10:06:46.507Z,95476.28
2022-10-05T10:09:38.519Z,95475.22
2022-10-05T10:12:22.963Z,95470.53
2022-10-05T10:15:20.053Z,95467.31
2022-10-05T10:18:07.604Z,95483.47
2022-10-05T10:20:58.784Z,95471.44
2022-10-05T10:23:55.096Z,95487.50
2022-10-05T10:26:56.156Z,95482.88
2022-10-05T10:29:45.859Z,95488.47
2022-10-05T10:32:34.088Z,95490.00
2022-10-05T10:35:22.331Z,95489.22
2022-10-05T10:38:28.487Z,95489.59
2022-10-05T10:41:06.631Z,95484.22
2022-10-05T10:44:17.242Z,95489.91
2022-10-05T10:46:59.132Z,95485.16
2022-10-05T10:49:34.489Z,95482.47
2022-10-05T10:52:08.317Z,95465.22
2022-10-05T10:54:55.777Z,95478.69
2022-10-05T10:57:36.720Z,95483.41
2022-10-05T11:00:27.125Z,95483.38
2022-10-05T11:03:26.439Z,95474.25
2022-10-05T11:06:05.172Z,95478.78
2022-10-05T11:08:46.509Z,95475.63
2022-10-05T11:11:51.791Z,95464.50
2022-10-05T11:14:55.315Z,95469.97
2022-10-05T11:17:26.128Z,95469.69
2022-10-05T11:20:21.536Z,95450.06
2022-10-05T11:23:00.215Z,95443.63
2022-10-05T11:25:46.614Z,95453.03
2022-10-05T11:28:38.112Z,95442.94
2022-10-05T11:31:37.914Z,95443.91
2022-10-05T11:34:21.134Z,95433.41
2022-10-05T11:37:25.201Z,95433.94
2022-10-05T11:40:10.514Z,95416.13
2022-10-05T11:43:06.375Z,95426.72
2022-10-05T11:45:45.782Z,95432.44
2022-10-05T11:48:39.431Z,95423.34
2022-10-05T11:51:30.441Z,95420.78
2022-10-05T11:54:09.081Z,95414.06
2022-10-05T11:57:04.636Z,95412.50
2022-10-05T11:59:43.224Z,95398.69
2022-10-05T12:02:28.048Z,95402.94
2022-10-05T12:05:12.837Z,95399.28
2022-10-05T12:08:00.200Z,95394.56
2022-10-05T12:10:52.872Z,95404.91
2022-10-05T12:13:38.007Z,95390.25
2022-10-05T12:16:20.720Z,95398.31
2022-10-05T12:19:29.619Z,95394.53
2022-10-05T12:22:04.146Z,95398.50
2022-10-05T12:24:36.446Z,95392.94
2022-10-05T12:27:09.616Z,95387.72
2022-10-05T12:29:50.925Z,95390.16
2022-10-05T12:32:49.370Z,95377.38
2022-10-05T12:35:29.974Z,95378.28
2022-10-05T12:38:17.601Z,95376.69
2022-10-05T12:41:10.926Z,95371.28
2022-10-05T12:44:02.458Z,95369.34
2022-10-05T12:46:46.743Z,95376.22
2022-10-05T12:49:25.159Z,95359.16
2022-10-05T12:51:58.341Z,95364.28
2022-10-05T12:54:39.903Z,95369.69
2022-10-05T12:57:34.375Z,95365.69
2022-10-05T13:00:12.649Z,95360.59
2022-10-05T13:02:44.879Z,95362.41
2022-10-05T13:05:11.218Z,95356.41
2022-10-05T13:07:58.817Z,95357.31
2022-10-05T13:10:36.343Z,95355.94
2022-10-05T13:13:21.421Z,95353.22
2022-10-05T13:16:22.701Z,95357.25
2022-10-05T13:19:14.503Z,95348.91
2022-10-05T13:21:49.925Z,95342.44
2022-10-05T13:24:24.777Z,95343.69
2022-10-05T13:26:59.199Z,95358.53
2022-10-05T13:29:37.463Z,95355.78
2022-10-05T13:32:13.404Z,95351.41
2022-10-05T13:34:52.546Z,95349.31
2022-10-05T13:37:40.982Z,95343.09
2022-10-05T13:40:24.968Z,95344.41
2022-10-05T13:43:11.783Z,95347.63
2022-10-05T13:45:57.012Z,95352.19
2022-10-05T13:48:51.737Z,95358.16
2022-10-05T13:51:29.445Z,95352.13
2022-10-05T13:54:04.892Z,95352.88
2022-10-05T13:56:39.484Z,95353.50
2022-10-05T13:59:38.389Z,95354.00
2022-10-05T14:02:10.723Z,95352.38
2022-10-05T14:04:51.988Z,95352.13
2022-10-05T14:07:36.367Z,95348.84
2022-10-05T14:10:10.336Z,95349.34
2022-10-05T14:12:40.311Z,95346.69
2022-10-05T14:15:21.358Z,95341.59
2022-10-05T14:17:47.987Z,95356.56
2022-10-05T14:20:19.709Z,95351.47
2022-10-05T14:22:51.543Z,95350.41
2022-10-05T14:25:19.784Z,95349.09
2022-10-05T14:27:56.018Z,95345.63
2022-10-05T14:30:25.647Z,95348.38
2022-10-05T14:33:18.296Z,95343.59
2022-10-05T14:35:49.198Z,95349.94
2022-10-05T14:38:20.075Z,95345.97
2022-10-05T14:41:03.393Z,95341.34
2022-10-05T14:43:30.266Z,95346.06
2022-10-05T14:45:59.427Z,95349.31
2022-10-05T14:48:28.071Z,95352.53
2022-10-05T14:50:57.811Z,95330.00
2022-10-05T14:53:36.225Z,95342.91
2022-10-05T14:56:27.131Z,95338.91
2022-10-05T14:59:16.187Z,95338.13
2022-10-05T15:01:55.486Z,95330.41
2022-10-05T15:04:47.622Z,95330.16
2022-10-05T15:07:27.996Z,95332.78
2022-10-05T15:10:03.387Z,95329.59
2022-10-05T15:12:43.692Z,95326.38
2022-10-05T15:15:39.660Z,95323.66
2022-10-05T15:18:19.618Z,95333.88
2022-10-05T15:21:11.092Z,95331.47
2022-10-05T15:23:47.412Z,95329.28
2022-10-05T15:26:33.154Z,95332.22
2022-10-05T15:29:14.837Z,95320.94
2022-10-05T15:31:59.024Z,95331.97
2022-10-05T15:34:49.000Z,95342.91
2022-10-05T15:37:25.166Z,95328.34
2022-10-05T15:40:06.784Z,95347.38
2022-10-05T15:42:39.038Z,95338.03
2022-10-05T15:45:19.535Z,95351.63
2022-10-05T15:47:49.805Z,95351.88
2022-10-05T15:50:32.420Z,95351.31
2022-10-05T15:53:13.492Z,95351.31
2022-10-05T15:55:50.757Z,95352.38
2022-10-05T15:58:31.269Z,95354.25
2022-10-05T16:01:05.397Z,95349.97
2022-10-05T16:03:37.730Z,95362.50
2022-10-05T16:06:33.383Z,95349.84
2022-10-05T16:09:14.853Z,95359.31
2022-10-05T16:12:02.340Z,95368.34
2022-10-05T16:14:46.959Z,95365.94
2022-10-05T16:17:33.910Z,95372.06
2022-10-05T16:20:18.919Z,95357.31
2022-10-05T16:23:10.259Z,95380.06
2022-10-05T16:26:11.587Z,95384.66
2022-10-05T16:28:53.172Z,95384.34
2022-10-05T16:31:30.981Z,95385.97
2022-10-05T16:34:23.624Z,95383.00
2022-10-05T16:36:59.102Z,95383.00
2022-10-05T16:39:50.223Z,95385.66
2022-10-05T16:42:28.782Z,95383.56
2022-10-05T16:45:17.213Z,95394.78
2022-10-05T16:47:52.728Z,95381.09
2022-10-05T16:50:30.154Z,95391.56
2022-10-05T16:53:21.357Z,95395.03
2022-10-05T16:55:52.969Z,95404.41
2022-10-05T16:58:27.302Z,95401.50
2022-10-05T17:00:56.473Z,95404.16
2022-10-05T17:03:39.930Z,95404.16
2022-10-05T17:06:20.489Z,95396.41
2022-10-05T17:09:19.234Z,95399.06
2022-10-05T17:12:29.393Z,95403.59
2022-10-05T17:15:29.237Z,95405.22
2022-10-05T17:18:24.028Z,95409.00
2022-10-05T17:21:01.007Z,95404.91
2022-10-05T17:23:32.197Z,95392.25
2022-10-05T17:26:13.827Z,95397.91
2022-10-05T17:29:11.730Z,95409.25
2022-10-05T17:32:06.118Z,95403.28
2022-10-05T17:34:36.325Z,95410.75
2022-10-05T17:37:27.618Z,95411.88
2022-10-05T17:39:56.214Z,95413.38
2022-10-05T17:42:42.572Z,95412.63
2022-10-05T17:45:14.715Z,95396.53
2022-10-05T17:47:57.975Z,95413.16
2022-10-05T17:51:06.103Z,95409.13
2022-10-05T17:54:03.201Z,95393.81
2022-10-05T17:56:33.723Z,95404.03
2022-10-05T17:59:04.147Z,95388.72
2022-10-05T18:01:33.871Z,95403.25
2022-10-05T18:04:12.685Z,95402.22
2022-10-05T18:06:59.003Z,95416.50
2022-10-05T18:09:26.981Z,95429.13
2022-10-05T18:12:17.851Z,95416.41
2022-10-05T18:15:12.859Z,95414.41
2022-10-05T18:17:45.203Z,95422.63
2022-10-05T18:20:23.811Z,95417.97
2022-10-05T18:22:53.027Z,95425.97
2022-10-05T18:25:29.480Z,95430.00
2022-10-05T18:28:00.668Z,95433.97
2022-10-05T18:30:37.030Z,95427.16
2022-10-05T18:33:32.022Z,95430.63
2022-10-05T18:36:20.859Z,95448.19
2022-10-05T18:38:55.114Z,95446.44
2022-10-05T18:41:51.314Z,95441.53
2022-10-05T18:44:30.441Z,95453.44
2022-10-05T18:47:09.633Z,95464.59
2022-10-05T18:49:51.787Z,95438.97
2022-10-05T18:52:49.442Z,95460.06
2022-10-05T18:55:45.782Z,95468.19
2022-10-05T18:58:57.489Z,95475.41
2022-10-05T19:01:57.097Z,95479.72
2022-10-05T19:04:39.981Z,95490.31
2022-10-05T19:07:31.698Z,95483.31
2022-10-05T19:10:17.320Z,95502.75
2022-10-05T19:12:52.608Z,95504.97
2022-10-05T19:15:54.101Z,95504.47
2022-10-05T19:18:55.631Z,95499.22
2022-10-05T19:21:22.081Z,95515.22
2022-10-05T19:23:48.604Z,95521.59
2022-10-05T19:26:36.365Z,95506.34
2022-10-05T19:29:57.300Z,95526.06
2022-10-05T19:32:48.653Z,95522.56
2022-10-05T19:35:43.176Z,95515.16
2022-10-05T19:38:25.115Z,95522.66
2022-10-05T19:41:09.788Z,95526.41
2022-10-05T19:43:55.965Z,95532.69
2022-10-05T19:46:31.706Z,95536.75
2022-10-05T19:49:00.122Z,95530.75
2022-10-05T19:51:30.702Z,95529.94
2022-10-05T19:54:06.478Z,95531.16
2022-10-05T19:56:34.387Z,95533.97
2022-10-05T19:59:13.221Z,95545.78
2022-10-05T20:01:40.683Z,95545.38
2022-10-05T20:04:08.042Z,95543.47
2022-10-05T20:06:34.711Z,95537.38
2022-10-05T20:09:19.272Z,95555.88
2022-10-05T20:11:53.435Z,95560.47
2022-10-05T20:14:31.724Z,95563.16
2022-10-05T20:17:52.168Z,95572.50
2022-10-05T20:20:48.465Z,95574.13
2022-10-05T20:23:24.516Z,95576.56
2022-10-05T20:26:10.865Z,95571.38
2022-10-05T20:28:37.791Z,95585.78
2022-10-05T20:31:08.969Z,95585.94
2022-10-05T20:33:35.607Z,95593.59
2022-10-05T20:36:03.652Z,95584.78
2022-10-05T20:38:31.270Z,95593.13
2022-10-05T20:40:58.041Z,95592.22
2022-10-05T20:43:24.497Z,95598.13
2022-10-05T20:45:53.741Z,95605.63
2022-10-05T20:48:20.233Z,95610.72
2022-10-05T20:50:47.394Z,95611.41
2022-10-05T20:53:13.844Z,95606.53
2022-10-05T20:55:40.514Z,95612.75
2022-10-05T20:58:08.936Z,95619.28
2022-10-05T21:00:54.239Z,95614.66
2022-10-05T21:03:20.797Z,95607.78
2022-10-05T21:05:47.314Z,95627.25
2022-10-05T21:08:14.017Z,95633.22
2022-10-05T21:10:40.633Z,95637.16
2022-10-05T21:13:07.133Z,95620.66
2022-10-05T21:15:33.567Z,95636.47
2022-10-05T21:17:59.976Z,95641.31
2022-10-05T21:20:26.517Z,95641.09
2022-10-05T21:22:52.902Z,95643.22
2022-10-05T21:25:19.355Z,95641.16
2022-10-05T21:27:46.370Z,95649.13
2022-10-05T21:30:12.996Z,95658.44
2022-10-05T21:32:43.980Z,95651.25
2022-10-05T21:35:11.008Z,95654.44
2022-10-05T21:37:37.601Z,95657.44
2022-10-05T21:40:04.636Z,95658.63
2022-10-05T21:42:31.304Z,95659.81
2022-10-05T21:44:57.736Z,95669.09
2022-10-05T21:47:24.236Z,95665.50
2022-10-05T21:49:50.661Z,95666.31
2022-10-05T21:52:17.567Z,95663.06
2022-10-05T21:54:44.153Z,95668.03
2022-10-05T21:57:12.290Z,95671.41
2022-10-05T21:59:40.133Z,95657.75
2022-10-05T22:02:06.630Z,95678.22
2022-10-05T22:04:33.093Z,95656.34
2022-10-05T22:06:59.663Z,95666.06
2022-10-05T22:09:26.204Z,95660.84
2022-10-05T22:11:52.720Z,95667.84
2022-10-05T22:14:19.238Z,95672.53
2022-10-05T22:16:45.763Z,95676.78
2022-10-05T22:19:18.702Z,95685.44
2022-10-05T22:21:45.127Z,95673.47
2022-10-05T22:24:11.697Z,95676.09
2022-10-05T22:26:39.770Z,95670.13
2022-10-05T22:29:06.364Z,95663.28
2022-10-05T22:31:32.945Z,95677.28
2022-10-05T22:33:59.481Z,95684.00
2022-10-05T22:36:26.580Z,95680.19
2022-10-05T22:38:52.985Z,95674.97
2022-10-05T22:41:19.435Z,95688.66
2022-10-05T22:43:49.944Z,95682.97
2022-10-05T22:46:16.839Z,95691.78
2022-10-05T22:48:43.416Z,95693.31
2022-10-05T22:51:10.334Z,95683.78
2022-10-05T22:53:36.978Z,95681.34
2022-10-05T22:56:09.134Z,95684.94
2022-10-05T22:58:36.931Z,95673.59
2022-10-05T23:01:05.921Z,95690.16
2022-10-05T23:03:33.052Z,95690.59
2022-10-05T23:06:03.505Z,95689.44
2022-10-05T23:08:31.639Z,95678.00
2022-10-05T23:11:05.424Z,95681.78
2022-10-05T23:13:32.613Z,95698.34
2022-10-05T23:16:08.938Z,95703.19
2022-10-05T23:18:35.679Z,95705.31
2022-10-05T23:21:02.512Z,95710.34
2022-10-05T23:23:28.982Z,95716.16
2022-10-05T23:26:00.430Z,95705.94
2022-10-05T23:28:28.182Z,95714.81
2022-10-05T23:31:01.982Z,95715.91
2022-10-05T23:33:28.859Z,95727.53
2022-10-05T23:36:02.167Z,95724.28
2022-10-05T23:38:29.918Z,95735.91
2022-10-05T23:40:58.863Z,95732.56
2022-10-05T23:43:26.808Z,95727.38
2022-10-05T23:45:54.807Z,95743.47
2022-10-05T23:48:21.543Z,95743.59
2022-10-05T23:50:49.614Z,95745.91
2022-10-05T23:53:17.315Z,95745.69
2022-10-05T23:55:44.123Z,95745.16
2022-10-05T23:58:11.456Z,95747.97
